KGLS/GLS METAR and TAF weather

Enter ICAO airport designator
Station Type Date Time Source
KGLS METAR 2019/04/19 10:52 UTC NOAA

KGLS 191052Z 30010KT 10SM CLR 16/09 A2992 RMK AO2 SLP133 T01610094


Station Type Date Time Source
KGLS Decoded METAR 2019/04/19 10:52 UTC NOAA

SCHOLES FIELD, TX, United States (KGLS) 29-16N 094-52W 6M
Apr 19, 2019 - 06:52 AM EDT / 2019.04.19 1052 UTC
Wind: from the WNW (300 degrees) at 12 MPH (10 KT):0
Visibility: 10 mile(s):0
Sky conditions: clear
Temperature: 61.0 F (16.1 C)
Dew Point: 48.9 F (9.4 C)
Relative Humidity: 64%
Pressure (altimeter): 29.92 in. Hg (1013 hPa)
ob: KGLS 191052Z 30010KT 10SM CLR 16/09 A2992 RMK AO2 SLP133 T01610094
cycle: 11

Station Type Date Time Source
KGLS TAF 2019/04/19 06:24 UTC NOAA

TAF KGLS 190520Z 1906/2006 31008KT P6SM SCT120
FM191200 32017G27KT P6SM SKC
FM191900 31022G32KT P6SM SKC
FM200200 33011KT P6SM SKC

Example: see airport list